EST,Max TemperatureF,Mean TemperatureF,Min TemperatureF,Max Dew PointF,MeanDew PointF,Min DewpointF,Max Humidity, Mean Humidity, Min Humidity, Max Sea Level PressureIn, Mean Sea Level PressureIn, Min Sea Level PressureIn, Max VisibilityMiles, Mean VisibilityMiles, Min VisibilityMiles, Max Wind SpeedMPH, Mean Wind SpeedMPH, Max Gust SpeedMPH,PrecipitationIn, CloudCover, Events, WindDirDegrees
2012-2-1,66,58,50,48,41,27,72,55,38,30.28,30.20,30.10,10,10,10,15,9,23,0.00,3,,235
2012-2-2,69,61,53,52,44,28,88,59,32,30.28,30.10,30.01,10,10,8,13,7,21,0.12,3,,299
2012-2-3,55,42,30,32,28,25,80,52,33,30.48,30.42,30.32,10,10,10,12,2,,0.00,0,,81
2012-2-4,55,44,33,48,39,28,87,79,70,30.38,30.26,30.09,10,10,10,6,1,,0.00,5,,213
2012-2-5,53,47,39,48,43,36,94,87,81,30.24,30.06,29.97,10,6,1,14,3,18,0.53,8,,43
2012-2-6,46,40,35,34,31,28,81,66,50,30.30,30.22,30.14,10,10,10,6,3,,0.00,7,,62
2012-2-7,57,44,32,36,30,27,87,62,31,30.19,30.15,30.12,10,10,7,8,1,,0.00,1,,40
2012-2-8,55,40,26,37,30,21,93,72,44,30.20,30.14,30.08,10,10,7,9,1,17,0.00,2,,1
2012-2-9,48,36,24,30,26,19,93,65,40,30.30,30.23,30.18,10,9,5,10,1,20,0.00,0,,39
2012-2-10,50,38,26,37,32,21,93,75,58,30.21,30.11,29.94,10,10,5,9,2,,0.00,2,,204
2012-2-11,50,38,26,37,24,1,87,56,26,30.03,29.83,29.73,10,10,6,18,4,36,0.00,7,,324
2012-2-12,41,31,21,10,5,0,46,34,24,30.27,30.18,30.07,10,10,9,14,8,25,0.00,,,313
2012-2-13,51,34,17,18,12,9,74,42,19,30.29,30.21,30.14,10,10,10,12,3,,0.00,,,230
2012-2-14,59,48,37,37,28,19,61,49,35,30.15,30.09,30.01,10,10,9,15,9,22,0.00,,,238
2012-2-15,62,48,33,39,33,27,93,56,26,30.28,30.20,30.09,10,10,0,9,2,,0.00,,,30
2012-2-16,55,46,37,52,42,30,94,79,57,30.27,30.14,30.00,10,8,1,9,2,,0.01,,,147
2012-2-17,62,52,41,46,40,36,93,68,39,30.12,30.07,30.03,10,8,0,6,2,,0.00,,,340
2012-2-18,66,50,33,37,34,30,87,57,30,30.13,30.06,29.97,10,10,10,10,1,,0.00,,,184
2012-2-19,51,42,33,45,38,28,93,84,58,29.95,29.84,29.71,10,8,3,18,6,26,0.34,,,49
2012-2-20,50,40,30,30,28,25,93,66,40,30.30,30.15,29.91,10,10,10,12,5,21,0.06,,,13
2012-2-21,59,41,23,43,31,18,93,72,50,30.34,30.23,30.03,10,10,10,20,3,25,0.00,,,197
2012-2-22,69,56,42,52,43,39,87,66,40,30.01,29.88,29.68,10,10,9,20,9,32,0.00,,,232
2012-2-23,77,60,44,59,50,41,94,69,41,29.71,29.65,29.60,10,8,0,18,8,26,0.12,4,Thunderstorm,228
2012-2-24,73,64,53,63,57,34,83,73,44,29.78,29.63,29.55,10,10,10,26,15,34,0.05,4,,237
2012-2-25,53,44,35,23,18,16,49,35,24,30.33,30.11,29.89,10,10,10,16,7,32,0.01,1,,313
2012-2-26,53,38,23,23,18,14,74,46,24,30.51,30.44,30.34,10,10,10,9,2,,0.00,0,,144
2012-2-27,46,40,33,45,36,19,93,77,52,30.46,30.41,30.34,10,8,2,5,1,,0.20,8,,68
2012-2-28,66,55,44,45,40,30,93,66,26,30.43,30.37,30.31,10,6,0,12,2,,0.00,4,,81
2012-2-29,71,58,46,59,48,34,88,68,54,30.30,30.11,29.91,10,10,9,21,6,30,0.00,6,,203